sensor_id;sensor_type;location;lat;lon;timestamp;pressure;altitude;pressure_sealevel;temperature;humidity
65832;BME280;52593;42.648;23.332;2023-04-15T00:01:46;93774.00;;;6.39;82.97
65832;BME280;52593;42.648;23.332;2023-04-15T00:04:12;93758.13;;;6.31;82.76
65832;BME280;52593;42.648;23.332;2023-04-15T00:06:37;93764.19;;;6.40;82.96
65832;BME280;52593;42.648;23.332;2023-04-15T00:09:04;93777.00;;;6.36;84.24
65832;BME280;52593;42.648;23.332;2023-04-15T00:11:30;93797.09;;;6.39;84.68
65832;BME280;52593;42.648;23.332;2023-04-15T00:13:55;93801.81;;;6.29;79.59
65832;BME280;52593;42.648;23.332;2023-04-15T00:16:20;93791.44;;;6.11;78.43
65832;BME280;52593;42.648;23.332;2023-04-15T00:18:46;93803.78;;;6.03;80.56
65832;BME280;52593;42.648;23.332;2023-04-15T00:21:11;93794.44;;;6.07;80.72
65832;BME280;52593;42.648;23.332;2023-04-15T00:23:37;93791.63;;;6.09;81.01
65832;BME280;52593;42.648;23.332;2023-04-15T00:26:02;93800.72;;;6.15;82.59
65832;BME280;52593;42.648;23.332;2023-04-15T00:28:28;93796.72;;;6.19;82.96
65832;BME280;52593;42.648;23.332;2023-04-15T00:30:53;93777.97;;;6.20;84.22
65832;BME280;52593;42.648;23.332;2023-04-15T00:33:19;93788.88;;;6.25;81.78
65832;BME280;52593;42.648;23.332;2023-04-15T00:35:44;93796.97;;;6.32;80.97
65832;BME280;52593;42.648;23.332;2023-04-15T00:38:10;93794.13;;;6.34;79.54
65832;BME280;52593;42.648;23.332;2023-04-15T00:40:36;93782.22;;;6.30;79.18
65832;BME280;52593;42.648;23.332;2023-04-15T00:43:01;93787.22;;;6.48;79.79
65832;BME280;52593;42.648;23.332;2023-04-15T00:45:28;93797.91;;;6.39;81.02
65832;BME280;52593;42.648;23.332;2023-04-15T00:47:54;93799.41;;;6.42;82.28
65832;BME280;52593;42.648;23.332;2023-04-15T00:50:21;93798.28;;;6.36;83.00
65832;BME280;52593;42.648;23.332;2023-04-15T00:52:47;93799.78;;;6.31;83.00
65832;BME280;52593;42.648;23.332;2023-04-15T00:55:12;93801.16;;;6.27;83.65
65832;BME280;52593;42.648;23.332;2023-04-15T00:57:38;93804.63;;;6.27;83.77
65832;BME280;52593;42.648;23.332;2023-04-15T01:00:04;93789.50;;;6.28;83.35
65832;BME280;52593;42.648;23.332;2023-04-15T01:02:32;93799.97;;;6.29;84.58
65832;BME280;52593;42.648;23.332;2023-04-15T01:05:16;93802.88;;;6.19;84.59
65832;BME280;52593;42.648;23.332;2023-04-15T01:07:42;93804.28;;;6.30;84.48
65832;BME280;52593;42.648;23.332;2023-04-15T01:10:08;93807.72;;;6.39;86.00
65832;BME280;52593;42.648;23.332;2023-04-15T01:12:34;93810.56;;;6.37;86.02
65832;BME280;52593;42.648;23.332;2023-04-15T01:15:00;93808.19;;;6.42;85.98
65832;BME280;52593;42.648;23.332;2023-04-15T01:17:26;93798.03;;;6.46;86.91
65832;BME280;52593;42.648;23.332;2023-04-15T01:19:54;93803.16;;;6.48;86.82
65832;BME280;52593;42.648;23.332;2023-04-15T01:22:20;93797.22;;;6.46;87.41
65832;BME280;52593;42.648;23.332;2023-04-15T01:24:53;93791.19;;;6.52;87.27
65832;BME280;52593;42.648;23.332;2023-04-15T01:27:20;93779.22;;;6.56;88.07
65832;BME280;52593;42.648;23.332;2023-04-15T01:29:46;93781.44;;;6.44;88.01
65832;BME280;52593;42.648;23.332;2023-04-15T01:32:11;93787.75;;;6.43;87.60
65832;BME280;52593;42.648;23.332;2023-04-15T01:34:37;93782.31;;;6.36;87.70
65832;BME280;52593;42.648;23.332;2023-04-15T01:37:02;93780.03;;;6.33;87.92
65832;BME280;52593;42.648;23.332;2023-04-15T01:39:27;93798.16;;;6.30;88.54
65832;BME280;52593;42.648;23.332;2023-04-15T01:41:53;93783.63;;;6.17;88.45
65832;BME280;52593;42.648;23.332;2023-04-15T01:44:18;93804.03;;;6.17;89.80
65832;BME280;52593;42.648;23.332;2023-04-15T01:46:43;93781.19;;;6.07;90.54
65832;BME280;52593;42.648;23.332;2023-04-15T01:49:09;93804.03;;;6.17;90.08
65832;BME280;52593;42.648;23.332;2023-04-15T01:51:34;93810.03;;;6.11;90.43
65832;BME280;52593;42.648;23.332;2023-04-15T01:54:00;93808.25;;;6.03;90.43
65832;BME280;52593;42.648;23.332;2023-04-15T01:56:25;93813.03;;;6.07;90.41
65832;BME280;52593;42.648;23.332;2023-04-15T01:58:51;93814.59;;;6.02;90.14
65832;BME280;52593;42.648;23.332;2023-04-15T02:01:17;93809.28;;;5.94;90.11
65832;BME280;52593;42.648;23.332;2023-04-15T02:03:44;93815.59;;;6.01;90.16
65832;BME280;52593;42.648;23.332;2023-04-15T02:06:09;93816.41;;;5.93;90.56
65832;BME280;52593;42.648;23.332;2023-04-15T02:08:35;93811.75;;;5.95;91.72
65832;BME280;52593;42.648;23.332;2023-04-15T02:11:00;93802.13;;;6.02;91.44
65832;BME280;52593;42.648;23.332;2023-04-15T02:13:26;93805.13;;;5.99;90.58
65832;BME280;52593;42.648;23.332;2023-04-15T02:15:51;93795.50;;;5.98;90.71
65832;BME280;52593;42.648;23.332;2023-04-15T02:18:17;93794.44;;;6.16;90.13
65832;BME280;52593;42.648;23.332;2023-04-15T02:20:42;93805.31;;;5.98;89.42
65832;BME280;52593;42.648;23.332;2023-04-15T02:23:08;93803.34;;;5.83;90.14
65832;BME280;52593;42.648;23.332;2023-04-15T02:25:33;93802.03;;;5.79;90.43
65832;BME280;52593;42.648;23.332;2023-04-15T02:27:59;93804.03;;;5.77;90.68
65832;BME280;52593;42.648;23.332;2023-04-15T02:30:24;93800.72;;;5.75;90.38
65832;BME280;52593;42.648;23.332;2023-04-15T02:32:50;93786.47;;;5.68;91.06
65832;BME280;52593;42.648;23.332;2023-04-15T02:35:15;93785.94;;;5.81;91.33
65832;BME280;52593;42.648;23.332;2023-04-15T02:37:44;93783.75;;;5.84;90.46
65832;BME280;52593;42.648;23.332;2023-04-15T02:40:10;93789.63;;;5.71;90.44
65832;BME280;52593;42.648;23.332;2023-04-15T02:42:39;93802.22;;;5.69;90.86
65832;BME280;52593;42.648;23.332;2023-04-15T02:45:05;93808.50;;;5.77;89.41
65832;BME280;52593;42.648;23.332;2023-04-15T02:47:32;93815.50;;;5.69;88.13
65832;BME280;52593;42.648;23.332;2023-04-15T02:49:57;93801.97;;;5.48;89.04
65832;BME280;52593;42.648;23.332;2023-04-15T02:52:24;93807.31;;;5.40;89.36
65832;BME280;52593;42.648;23.332;2023-04-15T02:54:50;93792.75;;;5.27;89.65
65832;BME280;52593;42.648;23.332;2023-04-15T02:57:16;93805.69;;;5.30;89.10
65832;BME280;52593;42.648;23.332;2023-04-15T02:59:41;93802.38;;;5.28;89.07
65832;BME280;52593;42.648;23.332;2023-04-15T03:02:06;93815.59;;;5.45;88.67
65832;BME280;52593;42.648;23.332;2023-04-15T03:04:32;93803.38;;;5.27;87.87
65832;BME280;52593;42.648;23.332;2023-04-15T03:06:58;93809.22;;;4.98;87.96
65832;BME280;52593;42.648;23.332;2023-04-15T03:09:23;93819.66;;;4.91;87.60
65832;BME280;52593;42.648;23.332;2023-04-15T03:11:49;93826.28;;;4.95;87.97
65832;BME280;52593;42.648;23.332;2023-04-15T03:14:16;93831.09;;;5.00;89.32
65832;BME280;52593;42.648;23.332;2023-04-15T03:16:41;93832.06;;;4.99;89.82
65832;BME280;52593;42.648;23.332;2023-04-15T03:19:07;93828.09;;;5.03;90.24
65832;BME280;52593;42.648;23.332;2023-04-15T03:21:32;93844.84;;;5.04;90.42
65832;BME280;52593;42.648;23.332;2023-04-15T03:23:57;93825.63;;;5.02;89.96
65832;BME280;52593;42.648;23.332;2023-04-15T03:26:30;93840.69;;;4.93;90.36
65832;BME280;52593;42.648;23.332;2023-04-15T03:28:56;93835.06;;;4.96;90.49
65832;BME280;52593;42.648;23.332;2023-04-15T03:31:22;93823.66;;;4.87;91.06
65832;BME280;52593;42.648;23.332;2023-04-15T03:33:47;93856.44;;;4.86;91.73
65832;BME280;52593;42.648;23.332;2023-04-15T03:36:13;93848.84;;;4.99;91.98
65832;BME280;52593;42.648;23.332;2023-04-15T03:38:38;93840.53;;;4.86;92.56
65832;BME280;52593;42.648;23.332;2023-04-15T03:41:04;93867.88;;;4.87;91.97
65832;BME280;52593;42.648;23.332;2023-04-15T03:43:30;93862.41;;;4.80;92.39
65832;BME280;52593;42.648;23.332;2023-04-15T03:45:55;93872.53;;;4.76;92.52
65832;BME280;52593;42.648;23.332;2023-04-15T03:48:21;93867.69;;;4.63;92.40
65832;BME280;52593;42.648;23.332;2023-04-15T03:50:46;93863.41;;;4.62;92.58
65832;BME280;52593;42.648;23.332;2023-04-15T03:53:12;93880.97;;;4.72;92.97
65832;BME280;52593;42.648;23.332;2023-04-15T03:55:37;93878.97;;;4.66;92.83
65832;BME280;52593;42.648;23.332;2023-04-15T03:58:03;93879.47;;;4.61;92.80
65832;BME280;52593;42.648;23.332;2023-04-15T04:00:28;93874.19;;;4.61;92.65
65832;BME280;52593;42.648;23.332;2023-04-15T04:02:54;93864.72;;;4.67;92.18
65832;BME280;52593;42.648;23.332;2023-04-15T04:05:19;93871.03;;;4.74;91.65
65832;BME280;52593;42.648;23.332;2023-04-15T04:07:44;93884.91;;;4.59;91.30
65832;BME280;52593;42.648;23.332;2023-04-15T04:10:10;93888.38;;;4.52;91.81
65832;BME280;52593;42.648;23.332;2023-04-15T04:12:36;93883.06;;;4.35;91.69
65832;BME280;52593;42.648;23.332;2023-04-15T04:15:01;93883.94;;;4.60;91.26
65832;BME280;52593;42.648;23.332;2023-04-15T04:17:27;93884.91;;;4.59;91.48
65832;BME280;52593;42.648;23.332;2023-04-15T04:19:52;93871.19;;;4.64;91.69
65832;BME280;52593;42.648;23.332;2023-04-15T04:22:21;93896.53;;;4.75;91.97
65832;BME280;52593;42.648;23.332;2023-04-15T04:24:48;93894.88;;;4.82;91.79
65832;BME280;52593;42.648;23.332;2023-04-15T04:27:13;93884.78;;;4.86;91.63
65832;BME280;52593;42.648;23.332;2023-04-15T04:29:38;93878.97;;;4.82;92.09
65832;BME280;52593;42.648;23.332;2023-04-15T04:32:04;93880.31;;;4.94;91.15
65832;BME280;52593;42.648;23.332;2023-04-15T04:34:30;93884.09;;;4.83;91.16
65832;BME280;52593;42.648;23.332;2023-04-15T04:36:56;93873.19;;;4.95;91.31
65832;BME280;52593;42.648;23.332;2023-04-15T04:39:22;93877.31;;;5.14;91.00
65832;BME280;52593;42.648;23.332;2023-04-15T04:41:47;93895.91;;;5.06;89.81
65832;BME280;52593;42.648;23.332;2023-04-15T04:44:13;93888.94;;;4.96;90.25
65832;BME280;52593;42.648;23.332;2023-04-15T04:46:39;93902.50;;;5.02;90.58
65832;BME280;52593;42.648;23.332;2023-04-15T04:49:04;93901.34;;;5.12;90.84
65832;BME280;52593;42.648;23.332;2023-04-15T04:51:30;93903.16;;;5.20;90.45
65832;BME280;52593;42.648;23.332;2023-04-15T04:53:55;93900.53;;;5.20;89.88
65832;BME280;52593;42.648;23.332;2023-04-15T04:56:21;93901.50;;;5.35;89.02
65832;BME280;52593;42.648;23.332;2023-04-15T04:58:46;93902.19;;;5.38;87.73
65832;BME280;52593;42.648;23.332;2023-04-15T05:01:12;93914.09;;;5.50;87.14
65832;BME280;52593;42.648;23.332;2023-04-15T05:03:37;93907.94;;;5.66;85.80
65832;BME280;52593;42.648;23.332;2023-04-15T05:06:03;93918.56;;;5.58;85.32
65832;BME280;52593;42.648;23.332;2023-04-15T05:08:30;93926.53;;;5.49;85.40
65832;BME280;52593;42.648;23.332;2023-04-15T05:10:56;93940.63;;;5.58;85.46
65832;BME280;52593;42.648;23.332;2023-04-15T05:13:21;93942.94;;;5.61;84.62
65832;BME280;52593;42.648;23.332;2023-04-15T05:15:46;93941.59;;;5.57;83.92
65832;BME280;52593;42.648;23.332;2023-04-15T05:18:12;93943.94;;;5.68;83.57
65832;BME280;52593;42.648;23.332;2023-04-15T05:20:37;93946.91;;;5.65;82.12
65832;BME280;52593;42.648;23.332;2023-04-15T05:23:03;93946.25;;;5.63;82.38
65832;BME280;52593;42.648;23.332;2023-04-15T05:25:28;93948.41;;;5.76;81.65
65832;BME280;52593;42.648;23.332;2023-04-15T05:27:54;93947.53;;;5.92;80.18
65832;BME280;52593;42.648;23.332;2023-04-15T05:30:19;93943.19;;;5.91;78.30
65832;BME280;52593;42.648;23.332;2023-04-15T05:32:45;93944.38;;;5.80;78.59
65832;BME280;52593;42.648;23.332;2023-04-15T05:35:11;93936.25;;;5.90;77.93
65832;BME280;52593;42.648;23.332;2023-04-15T05:37:36;93939.91;;;5.89;77.74
65832;BME280;52593;42.648;23.332;2023-04-15T05:40:01;93934.56;;;6.05;77.79
65832;BME280;52593;42.648;23.332;2023-04-15T05:42:28;93921.59;;;6.19;77.58
65832;BME280;52593;42.648;23.332;2023-04-15T05:44:53;93939.31;;;6.27;78.25
65832;BME280;52593;42.648;23.332;2023-04-15T05:47:19;93933.22;;;6.49;78.83
65832;BME280;52593;42.648;23.332;2023-04-15T05:49:44;93937.06;;;6.47;78.29
65832;BME280;52593;42.648;23.332;2023-04-15T05:52:10;93933.56;;;6.46;78.89
65832;BME280;52593;42.648;23.332;2023-04-15T05:54:35;93932.34;;;6.57;78.34
65832;BME280;52593;42.648;23.332;2023-04-15T05:57:00;93940.06;;;6.75;78.03
65832;BME280;52593;42.648;23.332;2023-04-15T05:59:26;93941.69;;;6.84;76.32
65832;BME280;52593;42.648;23.332;2023-04-15T06:01:52;93944.41;;;6.76;77.73
65832;BME280;52593;42.648;23.332;2023-04-15T06:04:18;93962.06;;;6.92;77.54
65832;BME280;52593;42.648;23.332;2023-04-15T06:06:43;93960.09;;;6.94;76.89
65832;BME280;52593;42.648;23.332;2023-04-15T06:09:09;93943.72;;;7.05;75.43
65832;BME280;52593;42.648;23.332;2023-04-15T06:11:35;93958.78;;;7.13;74.08
65832;BME280;52593;42.648;23.332;2023-04-15T06:14:00;93963.56;;;7.18;73.94
65832;BME280;52593;42.648;23.332;2023-04-15T06:16:26;93954.53;;;7.27;73.61
65832;BME280;52593;42.648;23.332;2023-04-15T06:18:51;93956.84;;;7.30;72.48
65832;BME280;52593;42.648;23.332;2023-04-15T06:21:17;93965.34;;;7.48;72.46
65832;BME280;52593;42.648;23.332;2023-04-15T06:23:42;93965.66;;;7.54;72.01
65832;BME280;52593;42.648;23.332;2023-04-15T06:26:08;93958.72;;;7.44;73.14
65832;BME280;52593;42.648;23.332;2023-04-15T06:28:33;93963.88;;;7.46;73.94
65832;BME280;52593;42.648;23.332;2023-04-15T06:30:58;93969.00;;;7.71;72.51
65832;BME280;52593;42.648;23.332;2023-04-15T06:33:25;93969.72;;;7.79;70.49
65832;BME280;52593;42.648;23.332;2023-04-15T06:35:51;93976.63;;;7.74;70.62
65832;BME280;52593;42.648;23.332;2023-04-15T06:38:16;93988.38;;;7.79;70.93
65832;BME280;52593;42.648;23.332;2023-04-15T06:40:42;93978.56;;;7.80;71.82
65832;BME280;52593;42.648;23.332;2023-04-15T06:43:07;93979.97;;;7.91;71.13
65832;BME280;52593;42.648;23.332;2023-04-15T06:45:33;93992.59;;;8.12;69.26
65832;BME280;52593;42.648;23.332;2023-04-15T06:47:58;93980.81;;;8.06;69.11
65832;BME280;52593;42.648;23.332;2023-04-15T06:50:24;93985.69;;;8.02;68.84
65832;BME280;52593;42.648;23.332;2023-04-15T06:52:49;94002.13;;;8.06;69.44
65832;BME280;52593;42.648;23.332;2023-04-15T06:55:15;93991.94;;;8.25;67.93
65832;BME280;52593;42.648;23.332;2023-04-15T06:57:40;93987.72;;;8.30;67.59
65832;BME280;52593;42.648;23.332;2023-04-15T07:00:06;93997.16;;;8.33;67.47
65832;BME280;52593;42.648;23.332;2023-04-15T07:02:32;93988.75;;;8.44;67.94
65832;BME280;52593;42.648;23.332;2023-04-15T07:04:57;93986.25;;;8.43;65.99
65832;BME280;52593;42.648;23.332;2023-04-15T07:07:22;93989.41;;;8.46;65.74
65832;BME280;52593;42.648;23.332;2023-04-15T07:09:48;94001.72;;;8.47;67.07
65832;BME280;52593;42.648;23.332;2023-04-15T07:12:13;93994.63;;;8.54;67.73
65832;BME280;52593;42.648;23.332;2023-04-15T07:14:39;93998.13;;;8.70;65.98
65832;BME280;52593;42.648;23.332;2023-04-15T07:17:04;93987.53;;;8.62;65.53
65832;BME280;52593;42.648;23.332;2023-04-15T07:19:30;93989.22;;;8.78;66.99
65832;BME280;52593;42.648;23.332;2023-04-15T07:21:56;93992.19;;;8.89;65.94
65832;BME280;52593;42.648;23.332;2023-04-15T07:24:21;94000.25;;;9.11;66.52
65832;BME280;52593;42.648;23.332;2023-04-15T07:26:50;93989.19;;;9.14;65.64
65832;BME280;52593;42.648;23.332;2023-04-15T07:29:16;93999.22;;;9.27;64.43
65832;BME280;52593;42.648;23.332;2023-04-15T07:31:41;93996.22;;;9.37;64.03
65832;BME280;52593;42.648;23.332;2023-04-15T07:34:07;93996.97;;;9.31;64.67
65832;BME280;52593;42.648;23.332;2023-04-15T07:36:32;93997.88;;;9.38;64.18
65832;BME280;52593;42.648;23.332;2023-04-15T07:38:58;93992.22;;;9.26;64.35
65832;BME280;52593;42.648;23.332;2023-04-15T07:41:26;93987.00;;;9.39;64.45
65832;BME280;52593;42.648;23.332;2023-04-15T07:43:51;93981.91;;;9.44;64.05
65832;BME280;52593;42.648;23.332;2023-04-15T07:46:17;93990.19;;;9.50;63.72
65832;BME280;52593;42.648;23.332;2023-04-15T07:48:42;93987.16;;;9.53;64.26
65832;BME280;52593;42.648;23.332;2023-04-15T07:51:07;94006.22;;;9.71;64.14
65832;BME280;52593;42.648;23.332;2023-04-15T07:53:34;94003.78;;;9.76;62.61
65832;BME280;52593;42.648;23.332;2023-04-15T07:56:00;93998.41;;;9.70;61.76
65832;BME280;52593;42.648;23.332;2023-04-15T07:58:25;94001.81;;;9.85;59.93
65832;BME280;52593;42.648;23.332;2023-04-15T08:00:51;93998.84;;;9.73;61.84
65832;BME280;52593;42.648;23.332;2023-04-15T08:03:17;94004.03;;;9.81;61.68
65832;BME280;52593;42.648;23.332;2023-04-15T08:05:42;94000.44;;;9.89;61.69
65832;BME280;52593;42.648;23.332;2023-04-15T08:08:08;94014.75;;;10.10;61.35
65832;BME280;52593;42.648;23.332;2023-04-15T08:10:34;94010.16;;;10.25;58.63
65832;BME280;52593;42.648;23.332;2023-04-15T08:12:59;94005.22;;;10.29;58.94
65832;BME280;52593;42.648;23.332;2023-04-15T08:15:25;94009.91;;;10.42;58.16
65832;BME280;52593;42.648;23.332;2023-04-15T08:17:51;94018.22;;;10.60;58.23
65832;BME280;52593;42.648;23.332;2023-04-15T08:20:17;94013.50;;;10.62;57.16
65832;BME280;52593;42.648;23.332;2023-04-15T08:22:44;93999.09;;;10.57;58.88
65832;BME280;52593;42.648;23.332;2023-04-15T08:25:09;94005.38;;;10.84;55.74
65832;BME280;52593;42.648;23.332;2023-04-15T08:27:34;94004.19;;;10.93;57.30
65832;BME280;52593;42.648;23.332;2023-04-15T08:30:00;94005.53;;;11.17;56.33
65832;BME280;52593;42.648;23.332;2023-04-15T08:32:25;93993.81;;;11.25;51.86
65832;BME280;52593;42.648;23.332;2023-04-15T08:34:51;93999.16;;;11.25;52.07
65832;BME280;52593;42.648;23.332;2023-04-15T08:37:17;94002.75;;;11.46;54.33
65832;BME280;52593;42.648;23.332;2023-04-15T08:39:42;93988.34;;;11.60;54.74
65832;BME280;52593;42.648;23.332;2023-04-15T08:42:16;93986.94;;;11.91;53.94
65832;BME280;52593;42.648;23.332;2023-04-15T08:44:42;93986.34;;;11.95;52.56
65832;BME280;52593;42.648;23.332;2023-04-15T08:47:12;93975.00;;;12.13;48.38
65832;BME280;52593;42.648;23.332;2023-04-15T08:49:42;93972.91;;;12.29;44.79
65832;BME280;52593;42.648;23.332;2023-04-15T08:52:08;93965.91;;;12.35;46.45
65832;BME280;52593;42.648;23.332;2023-04-15T08:54:34;93976.81;;;12.53;45.98
65832;BME280;52593;42.648;23.332;2023-04-15T08:57:00;93966.84;;;12.74;43.23
65832;BME280;52593;42.648;23.332;2023-04-15T08:59:29;93966.22;;;12.72;40.71
65832;BME280;52593;42.648;23.332;2023-04-15T09:01:56;93954.06;;;12.76;41.23
65832;BME280;52593;42.648;23.332;2023-04-15T09:04:22;93962.38;;;13.06;43.37
65832;BME280;52593;42.648;23.332;2023-04-15T09:06:47;93955.47;;;13.37;47.14
65832;BME280;52593;42.648;23.332;2023-04-15T09:09:13;93960.00;;;13.30;44.81
65832;BME280;52593;42.648;23.332;2023-04-15T09:11:38;93968.28;;;13.35;46.46
65832;BME280;52593;42.648;23.332;2023-04-15T09:14:04;93958.59;;;13.34;42.96
65832;BME280;52593;42.648;23.332;2023-04-15T09:16:30;93940.38;;;13.36;42.45
65832;BME280;52593;42.648;23.332;2023-04-15T09:18:56;93941.19;;;13.30;42.51
65832;BME280;52593;42.648;23.332;2023-04-15T09:21:21;93951.44;;;13.08;42.26
65832;BME280;52593;42.648;23.332;2023-04-15T09:23:58;93936.09;;;13.15;43.28
65832;BME280;52593;42.648;23.332;2023-04-15T09:26:34;93948.75;;;13.53;41.35
65832;BME280;52593;42.648;23.332;2023-04-15T09:29:07;93939.88;;;13.46;40.37
65832;BME280;52593;42.648;23.332;2023-04-15T09:31:34;93948.47;;;13.61;40.40
65832;BME280;52593;42.648;23.332;2023-04-15T09:34:01;93946.84;;;13.60;39.28
65832;BME280;52593;42.648;23.332;2023-04-15T09:36:27;93945.69;;;13.74;38.79
65832;BME280;52593;42.648;23.332;2023-04-15T09:38:59;93941.31;;;14.05;38.23
65832;BME280;52593;42.648;23.332;2023-04-15T09:41:25;93944.19;;;14.11;38.61
65832;BME280;52593;42.648;23.332;2023-04-15T09:43:51;93952.41;;;14.16;38.60
65832;BME280;52593;42.648;23.332;2023-04-15T09:46:17;93952.53;;;14.27;36.30
65832;BME280;52593;42.648;23.332;2023-04-15T09:48:42;93949.09;;;14.39;33.36
65832;BME280;52593;42.648;23.332;2023-04-15T09:51:08;93945.38;;;14.40;35.27
65832;BME280;52593;42.648;23.332;2023-04-15T09:53:35;93951.81;;;14.64;38.03
65832;BME280;52593;42.648;23.332;2023-04-15T09:56:01;93961.91;;;15.06;35.54
65832;BME280;52593;42.648;23.332;2023-04-15T09:58:29;93963.66;;;15.30;31.20
65832;BME280;52593;42.648;23.332;2023-04-15T10:00:56;93944.75;;;14.63;32.67
65832;BME280;52593;42.648;23.332;2023-04-15T10:03:23;93952.03;;;14.81;32.44
65832;BME280;52593;42.648;23.332;2023-04-15T10:05:52;93937.03;;;14.67;31.83
65832;BME280;52593;42.648;23.332;2023-04-15T10:08:19;93944.69;;;14.70;32.95
65832;BME280;52593;42.648;23.332;2023-04-15T10:10:46;93940.94;;;14.45;33.49
65832;BME280;52593;42.648;23.332;2023-04-15T10:13:13;93922.06;;;14.08;34.21
65832;BME280;52593;42.648;23.332;2023-04-15T10:15:43;93927.88;;;14.31;34.10
65832;BME280;52593;42.648;23.332;2023-04-15T10:18:10;93923.09;;;14.51;34.78
65832;BME280;52593;42.648;23.332;2023-04-15T10:20:38;93925.06;;;15.18;35.89
65832;BME280;52593;42.648;23.332;2023-04-15T10:23:05;93922.16;;;15.62;35.87
65832;BME280;52593;42.648;23.332;2023-04-15T10:25:32;93906.56;;;16.06;36.62
65832;BME280;52593;42.648;23.332;2023-04-15T10:27:58;93902.13;;;16.23;34.79
65832;BME280;52593;42.648;23.332;2023-04-15T10:30:24;93904.09;;;16.52;33.81
65832;BME280;52593;42.648;23.332;2023-04-15T10:32:50;93907.88;;;16.51;33.83
65832;BME280;52593;42.648;23.332;2023-04-15T10:35:16;93909.88;;;16.44;32.03
65832;BME280;52593;42.648;23.332;2023-04-15T10:37:42;93914.78;;;16.23;32.35
65832;BME280;52593;42.648;23.332;2023-04-15T10:40:28;93909.50;;;16.16;33.33
65832;BME280;52593;42.648;23.332;2023-04-15T10:43:00;93894.25;;;16.34;31.83
65832;BME280;52593;42.648;23.332;2023-04-15T10:45:33;93911.72;;;16.55;33.12
65832;BME280;52593;42.648;23.332;2023-04-15T10:48:02;93912.19;;;16.52;34.00
65832;BME280;52593;42.648;23.332;2023-04-15T10:50:30;93917.38;;;16.53;34.01
65832;BME280;52593;42.648;23.332;2023-04-15T10:52:58;93909.50;;;16.64;32.13
65832;BME280;52593;42.648;23.332;2023-04-15T10:55:31;93905.75;;;16.05;29.41
65832;BME280;52593;42.648;23.332;2023-04-15T10:58:01;93884.75;;;15.96;28.75
65832;BME280;52593;42.648;23.332;2023-04-15T11:00:36;93901.28;;;15.99;29.78
65832;BME280;52593;42.648;23.332;2023-04-15T11:03:07;93894.13;;;16.17;29.48
65832;BME280;52593;42.648;23.332;2023-04-15T11:05:48;93890.34;;;16.65;32.27
65832;BME280;52593;42.648;23.332;2023-04-15T11:08:13;93893.81;;;17.01;34.26
65832;BME280;52593;42.648;23.332;2023-04-15T11:10:49;93901.19;;;17.18;27.71
65832;BME280;52593;42.648;23.332;2023-04-15T11:13:19;93901.38;;;16.87;26.19
65832;BME280;52593;42.648;23.332;2023-04-15T11:15:48;93900.09;;;16.90;28.14
65832;BME280;52593;42.648;23.332;2023-04-15T11:18:21;93900.59;;;16.63;26.07
65832;BME280;52593;42.648;23.332;2023-04-15T11:20:48;93899.41;;;16.71;27.63
65832;BME280;52593;42.648;23.332;2023-04-15T11:23:26;93886.03;;;16.40;29.03
65832;BME280;52593;42.648;23.332;2023-04-15T11:25:54;93889.44;;;16.24;29.49
65832;BME280;52593;42.648;23.332;2023-04-15T11:28:30;93896.00;;;16.52;29.23
65832;BME280;52593;42.648;23.332;2023-04-15T11:30:56;93903.88;;;16.18;28.24
65832;BME280;52593;42.648;23.332;2023-04-15T11:33:23;93899.53;;;16.52;29.38
65832;BME280;52593;42.648;23.332;2023-04-15T11:35:49;93895.19;;;16.39;28.45
65832;BME280;52593;42.648;23.332;2023-04-15T11:38:15;93891.09;;;16.25;26.75
65832;BME280;52593;42.648;23.332;2023-04-15T11:40:44;93891.91;;;16.02;27.78
65832;BME280;52593;42.648;23.332;2023-04-15T11:43:14;93889.31;;;16.43;28.24
65832;BME280;52593;42.648;23.332;2023-04-15T11:46:00;93895.91;;;16.35;28.46
65832;BME280;52593;42.648;23.332;2023-04-15T11:48:27;93881.13;;;16.37;28.47
65832;BME280;52593;42.648;23.332;2023-04-15T11:50:54;93882.88;;;16.32;28.39
65832;BME280;52593;42.648;23.332;2023-04-15T11:53:20;93883.69;;;16.44;27.57
65832;BME280;52593;42.648;23.332;2023-04-15T11:55:48;93886.63;;;16.19;29.29
65832;BME280;52593;42.648;23.332;2023-04-15T11:58:21;93877.72;;;16.42;28.73
65832;BME280;52593;42.648;23.332;2023-04-15T12:00:51;93893.06;;;16.53;28.41
65832;BME280;52593;42.648;23.332;2023-04-15T12:06:24;93885.91;;;16.12;28.67
65832;BME280;52593;42.648;23.332;2023-04-15T12:14:10;93883.47;;;16.22;27.70
65832;BME280;52593;42.648;23.332;2023-04-15T12:16:46;93884.97;;;16.18;27.54
65832;BME280;52593;42.648;23.332;2023-04-15T12:19:15;93880.25;;;16.61;27.66
65832;BME280;52593;42.648;23.332;2023-04-15T12:21:43;93871.59;;;16.47;28.71
65832;BME280;52593;42.648;23.332;2023-04-15T12:24:10;93876.50;;;16.62;29.49
65832;BME280;52593;42.648;23.332;2023-04-15T12:26:49;93891.16;;;16.77;28.67
65832;BME280;52593;42.648;23.332;2023-04-15T12:29:16;93880.88;;;17.15;28.98
65832;BME280;52593;42.648;23.332;2023-04-15T12:31:58;93888.41;;;17.01;28.57
65832;BME280;52593;42.648;23.332;2023-04-15T12:34:32;93892.81;;;16.79;27.54
65832;BME280;52593;42.648;23.332;2023-04-15T12:36:59;93899.97;;;16.73;27.79
65832;BME280;52593;42.648;23.332;2023-04-15T12:39:27;93888.72;;;16.88;28.32
65832;BME280;52593;42.648;23.332;2023-04-15T12:41:54;93897.34;;;17.14;28.72
65832;BME280;52593;42.648;23.332;2023-04-15T12:44:21;93892.06;;;17.36;28.29
65832;BME280;52593;42.648;23.332;2023-04-15T12:46:48;93883.06;;;16.89;28.54
65832;BME280;52593;42.648;23.332;2023-04-15T12:49:14;93894.06;;;17.00;29.07
65832;BME280;52593;42.648;23.332;2023-04-15T12:51:40;93900.50;;;17.10;28.52
65832;BME280;52593;42.648;23.332;2023-04-15T12:54:06;93897.38;;;17.31;28.46
65832;BME280;52593;42.648;23.332;2023-04-15T12:56:31;93899.97;;;17.25;27.52
65832;BME280;52593;42.648;23.332;2023-04-15T12:58:56;93894.66;;;17.59;27.58
65832;BME280;52593;42.648;23.332;2023-04-15T13:01:22;93895.59;;;17.82;27.34
65832;BME280;52593;42.648;23.332;2023-04-15T13:03:47;93895.91;;;17.11;27.86